PWSweather.com
Personal Weather Stations
Station Observations
SHAHALMS1
Eftra, Falkenberg, HA

EftraFalkenberg, HA

Lat: 56.85, Lon: 12.65

Elevation: 140

Station Type:

http://hem.passagen.se/risarp101

High Low Average
Temperature 44.1°F6.7°C 40.6°F4.8°C 42.3°F5.7°C
Dew Point 42.4°F5.8°C 38.3°F3.5°C 40.1°F4.5°C
Winds 16.4 mph 26.4 kmh 3.1 mph 5.0 kmh 11.0 mph SW17.7 kmh SW
Wind Gusts 35.8 mph57.6 kmh 6.1 mph9.8 kmh 23.0 mph37.0 kmh
Humidity 94% 90% 92%
Pressure 29.30 in992.2 mb 29.03 in983.1 mb -
Precipitation 0.56 in14.2 mm - -
Hour Temp Dew Point Humidity Winds Wind Gusts Pressure Precip Precip Rate Daily Precip Total
12:00 AM 42.4°F5.8°C 40.8°F4.9°C 94% 9.5 mph S15.3 kmh S 19.7 mph31.7 kmh 29.15 in987.1 mb 0.00 in0.0 mm 0.00 in0.0 mm 0.00 in0.0 mm
12:15 AM 43.0°F6.1°C 41.4°F5.2°C 94% 10.1 mph S16.3 kmh S 20.0 mph32.2 kmh 29.15 in987.1 mb 0.00 in0.0 mm 0.00 in0.0 mm 0.00 in0.0 mm
12:30 AM 43.2°F6.2°C 41.6°F5.3°C 94% 8.9 mph SSW14.3 kmh SSW 20.4 mph32.8 kmh 29.15 in987.1 mb 0.00 in0.0 mm 0.00 in0.0 mm 0.00 in0.0 mm
12:45 AM 43.2°F6.2°C 41.6°F5.3°C 94% 7.3 mph SSW11.7 kmh SSW 16.8 mph27.0 kmh 29.15 in987.1 mb 0.00 in0.0 mm 0.00 in0.0 mm 0.00 in0.0 mm
01:00 AM 43.2°F6.2°C 41.6°F5.3°C 94% 8.6 mph S13.8 kmh S 20.0 mph32.2 kmh 29.15 in987.1 mb 0.00 in0.0 mm 0.00 in0.0 mm 0.00 in0.0 mm
01:15 AM 43.3°F6.3°C 41.7°F5.4°C 94% 9.1 mph S14.6 kmh S 19.7 mph31.7 kmh 29.12 in986.1 mb 0.00 in0.0 mm 0.00 in0.0 mm 0.00 in0.0 mm
01:30 AM 43.3°F6.3°C 41.5°F5.3°C 93% 7.7 mph S12.4 kmh S 16.5 mph26.6 kmh 29.12 in986.1 mb 0.00 in0.0 mm 0.00 in0.0 mm 0.00 in0.0 mm
01:45 AM 43.3°F6.3°C 41.5°F5.3°C 93% 8.3 mph S13.4 kmh S 17.2 mph27.7 kmh 29.15 in987.1 mb 0.00 in0.0 mm 0.00 in0.0 mm 0.00 in0.0 mm
02:04 AM 43.5°F6.4°C 41.6°F5.3°C 93% 4.9 mph S7.9 kmh S 6.1 mph9.8 kmh 29.15 in987.1 mb 0.00 in0.0 mm 0.00 in0.0 mm 0.00 in0.0 mm
02:15 AM 43.7°F6.5°C 41.8°F5.4°C 93% 9.2 mph S14.8 kmh S 16.8 mph27.0 kmh 29.18 in988.1 mb 0.00 in0.0 mm 0.00 in0.0 mm 0.00 in0.0 mm
02:30 AM 43.5°F6.4°C 41.6°F5.3°C 93% 7.5 mph SSW12.1 kmh SSW 17.5 mph28.2 kmh 29.15 in987.1 mb 0.00 in0.0 mm 0.00 in0.0 mm 0.00 in0.0 mm
02:45 AM 43.5°F6.4°C 41.6°F5.3°C 93% 7.1 mph S11.4 kmh S 15.7 mph25.3 kmh 29.15 in987.1 mb 0.00 in0.0 mm 0.00 in0.0 mm 0.00 in0.0 mm
03:00 AM 43.7°F6.5°C 41.8°F5.4°C 93% 7.5 mph S12.1 kmh S 16.1 mph25.9 kmh 29.15 in987.1 mb 0.00 in0.0 mm 0.00 in0.0 mm 0.00 in0.0 mm
03:15 AM 43.7°F6.5°C 41.8°F5.4°C 93% 7.6 mph S12.2 kmh S 19.0 mph30.6 kmh 29.15 in987.1 mb 0.00 in0.0 mm 0.00 in0.0 mm 0.00 in0.0 mm
03:30 AM 43.7°F6.5°C 41.8°F5.4°C 93% 8.3 mph S13.4 kmh S 20.8 mph33.5 kmh 29.15 in987.1 mb 0.00 in0.0 mm 0.00 in0.0 mm 0.00 in0.0 mm
03:45 AM 43.7°F6.5°C 41.8°F5.4°C 93% 6.7 mph S10.8 kmh S 14.0 mph22.5 kmh 29.12 in986.1 mb 0.00 in0.0 mm 0.00 in0.0 mm 0.00 in0.0 mm
04:00 AM 43.7°F6.5°C 41.8°F5.4°C 93% 8.0 mph S12.9 kmh S 19.0 mph30.6 kmh 29.12 in986.1 mb 0.00 in0.0 mm 0.00 in0.0 mm 0.00 in0.0 mm
04:15 AM 43.9°F6.6°C 42.0°F5.6°C 93% 6.1 mph S9.8 kmh S 17.2 mph27.7 kmh 29.12 in986.1 mb 0.00 in0.0 mm 0.00 in0.0 mm 0.00 in0.0 mm
04:30 AM 44.1°F6.7°C 42.4°F5.8°C 94% 7.7 mph S12.4 kmh S 17.9 mph28.8 kmh 29.12 in986.1 mb 0.00 in0.0 mm 0.00 in0.0 mm 0.00 in0.0 mm
04:45 AM 43.7°F6.5°C 41.8°F5.4°C 93% 7.3 mph SW11.7 kmh SW 20.0 mph32.2 kmh 29.12 in986.1 mb 0.05 in1.3 mm 0.20 in5.1 mm 0.05 in1.3 mm
05:00 AM 43.5°F6.4°C 41.6°F5.3°C 93% 6.9 mph S11.1 kmh S 19.0 mph30.6 kmh 29.09 in985.1 mb 0.05 in1.3 mm 0.00 in0.0 mm 0.05 in1.3 mm
05:15 AM 43.3°F6.3°C 41.5°F5.3°C 93% 4.3 mph S6.9 kmh S 8.6 mph13.8 kmh 29.09 in985.1 mb 0.09 in2.3 mm 0.16 in4.1 mm 0.09 in2.3 mm
05:30 AM 43.2°F6.2°C 41.3°F5.2°C 93% 5.4 mph S8.7 kmh S 11.8 mph19.0 kmh 29.09 in985.1 mb 0.14 in3.6 mm 0.20 in5.1 mm 0.14 in3.6 mm
05:45 AM 42.3°F5.7°C 40.4°F4.7°C 93% 5.3 mph S8.5 kmh S 11.1 mph17.9 kmh 29.09 in985.1 mb 0.14 in3.6 mm 0.00 in0.0 mm 0.18 in4.6 mm
06:00 AM 42.1°F5.6°C 40.2°F4.6°C 93% 3.8 mph S6.1 kmh S 8.6 mph13.8 kmh 29.09 in985.1 mb 0.19 in4.8 mm 0.07 in1.8 mm 0.24 in6.1 mm
06:15 AM 42.1°F5.6°C 40.2°F4.6°C 93% 3.8 mph S6.1 kmh S 7.9 mph12.7 kmh 29.09 in985.1 mb 0.19 in4.8 mm 0.00 in0.0 mm 0.29 in7.4 mm
06:30 AM 41.9°F5.5°C 40.0°F4.4°C 93% 3.4 mph SSW5.5 kmh SSW 7.9 mph12.7 kmh 29.09 in985.1 mb 0.15 in3.8 mm 0.00 in0.0 mm 0.29 in7.4 mm
06:45 AM 41.7°F5.4°C 39.8°F4.3°C 93% 3.1 mph S5.0 kmh S 6.8 mph10.9 kmh 29.09 in985.1 mb 0.10 in2.5 mm 0.00 in0.0 mm 0.29 in7.4 mm
07:00 AM 42.1°F5.6°C 40.2°F4.6°C 93% 3.9 mph S6.3 kmh S 11.5 mph18.5 kmh 29.09 in985.1 mb 0.05 in1.3 mm 0.00 in0.0 mm 0.29 in7.4 mm
07:15 AM 42.6°F5.9°C 40.7°F4.8°C 93% 5.1 mph S8.2 kmh S 12.2 mph19.6 kmh 29.09 in985.1 mb 0.00 in0.0 mm 0.00 in0.0 mm 0.29 in7.4 mm
07:30 AM 42.8°F6.0°C 40.9°F4.9°C 93% 7.0 mph S11.3 kmh S 15.7 mph25.3 kmh 29.06 in984.1 mb 0.05 in1.3 mm 0.20 in5.1 mm 0.33 in8.4 mm
07:45 AM 42.8°F6.0°C 41.2°F5.1°C 94% 6.4 mph S10.3 kmh S 15.7 mph25.3 kmh 29.06 in984.1 mb 0.05 in1.3 mm 0.00 in0.0 mm 0.33 in8.4 mm
08:00 AM 43.2°F6.2°C 41.6°F5.3°C 94% 10.2 mph S16.4 kmh S 22.9 mph36.9 kmh 29.06 in984.1 mb 0.05 in1.3 mm 0.00 in0.0 mm 0.33 in8.4 mm
08:15 AM 43.3°F6.3°C 41.7°F5.4°C 94% 10.6 mph S17.1 kmh S 23.6 mph38.0 kmh 29.06 in984.1 mb 0.09 in2.3 mm 0.16 in4.1 mm 0.38 in9.7 mm
08:30 AM 43.5°F6.4°C 41.9°F5.5°C 94% 9.8 mph S15.8 kmh S 26.8 mph43.1 kmh 29.03 in983.1 mb 0.05 in1.3 mm 0.00 in0.0 mm 0.38 in9.7 mm
08:45 AM 43.3°F6.3°C 41.5°F5.3°C 93% 12.3 mph SSW19.8 kmh SSW 28.3 mph45.5 kmh 29.06 in984.1 mb 0.05 in1.3 mm 0.00 in0.0 mm 0.38 in9.7 mm
09:00 AM 43.5°F6.4°C 41.6°F5.3°C 93% 14.0 mph SSW22.5 kmh SSW 26.8 mph43.1 kmh 29.06 in984.1 mb 0.05 in1.3 mm 0.00 in0.0 mm 0.38 in9.7 mm
09:15 AM 43.5°F6.4°C 41.6°F5.3°C 93% 13.7 mph SSW22.0 kmh SSW 27.6 mph44.4 kmh 29.06 in984.1 mb 0.00 in0.0 mm 0.00 in0.0 mm 0.38 in9.7 mm
09:30 AM 43.3°F6.3°C 41.5°F5.3°C 93% 14.8 mph SSW23.8 kmh SSW 27.9 mph44.9 kmh 29.06 in984.1 mb 0.00 in0.0 mm 0.00 in0.0 mm 0.38 in9.7 mm
09:45 AM 43.3°F6.3°C 41.5°F5.3°C 93% 14.2 mph SW22.9 kmh SW 28.3 mph45.5 kmh 29.06 in984.1 mb 0.00 in0.0 mm 0.00 in0.0 mm 0.38 in9.7 mm
10:01 AM 43.3°F6.3°C 41.5°F5.3°C 93% 14.9 mph SW24.0 kmh SW 31.1 mph50.1 kmh 29.06 in984.1 mb 0.00 in0.0 mm 0.00 in0.0 mm 0.38 in9.7 mm
10:15 AM 43.3°F6.3°C 41.2°F5.1°C 92% 16.4 mph WSW26.4 kmh WSW 31.5 mph50.7 kmh 29.06 in984.1 mb 0.00 in0.0 mm 0.00 in0.0 mm 0.38 in9.7 mm
10:30 AM 43.3°F6.3°C 40.9°F4.9°C 91% 15.0 mph SW24.1 kmh SW 31.1 mph50.1 kmh 29.09 in985.1 mb 0.00 in0.0 mm 0.00 in0.0 mm 0.38 in9.7 mm
10:45 AM 43.2°F6.2°C 40.7°F4.8°C 91% 12.4 mph SSW20.0 kmh SSW 24.3 mph39.1 kmh 29.06 in984.1 mb 0.00 in0.0 mm 0.00 in0.0 mm 0.38 in9.7 mm
11:00 AM 43.2°F6.2°C 40.7°F4.8°C 91% 10.6 mph S17.1 kmh S 24.3 mph39.1 kmh 29.06 in984.1 mb 0.00 in0.0 mm 0.00 in0.0 mm 0.38 in9.7 mm
11:15 AM 42.8°F6.0°C 40.1°F4.5°C 90% 13.7 mph SW22.0 kmh SW 34.0 mph54.7 kmh 29.06 in984.1 mb 0.00 in0.0 mm 0.00 in0.0 mm 0.38 in9.7 mm
11:30 AM 42.4°F5.8°C 39.7°F4.3°C 90% 14.3 mph WSW23.0 kmh WSW 31.9 mph51.3 kmh 29.06 in984.1 mb 0.00 in0.0 mm 0.00 in0.0 mm 0.38 in9.7 mm
11:45 AM 42.1°F5.6°C 39.4°F4.1°C 90% 13.6 mph SW21.9 kmh SW 35.8 mph57.6 kmh 29.09 in985.1 mb 0.00 in0.0 mm 0.00 in0.0 mm 0.38 in9.7 mm
12:00 PM 41.9°F5.5°C 39.2°F4.0°C 90% 15.5 mph WSW24.9 kmh WSW 28.3 mph45.5 kmh 29.06 in984.1 mb 0.00 in0.0 mm 0.00 in0.0 mm 0.38 in9.7 mm
12:15 PM 41.9°F5.5°C 39.5°F4.2°C 91% 14.1 mph W22.7 kmh W 26.8 mph43.1 kmh 29.06 in984.1 mb 0.00 in0.0 mm 0.00 in0.0 mm 0.38 in9.7 mm
12:30 PM 41.9°F5.5°C 39.5°F4.2°C 91% 14.5 mph W23.3 kmh W 31.9 mph51.3 kmh 29.09 in985.1 mb 0.00 in0.0 mm 0.00 in0.0 mm 0.38 in9.7 mm
12:45 PM 41.7°F5.4°C 39.6°F4.2°C 92% 10.9 mph W17.5 kmh W 23.6 mph38.0 kmh 29.09 in985.1 mb 0.00 in0.0 mm 0.00 in0.0 mm 0.38 in9.7 mm
01:00 PM 41.7°F5.4°C 39.6°F4.2°C 92% 12.4 mph W20.0 kmh W 25.1 mph40.4 kmh 29.09 in985.1 mb 0.05 in1.3 mm 0.07 in1.8 mm 0.43 in10.9 mm
01:15 PM 41.7°F5.4°C 39.8°F4.3°C 93% 11.9 mph W19.2 kmh W 26.8 mph43.1 kmh 29.09 in985.1 mb 0.05 in1.3 mm 0.00 in0.0 mm 0.43 in10.9 mm
01:30 PM 41.9°F5.5°C 40.0°F4.4°C 93% 14.3 mph WSW23.0 kmh WSW 27.9 mph44.9 kmh 29.09 in985.1 mb 0.09 in2.3 mm 0.16 in4.1 mm 0.47 in11.9 mm
01:45 PM 41.9°F5.5°C 40.0°F4.4°C 93% 16.0 mph W25.7 kmh W 30.8 mph49.6 kmh 29.09 in985.1 mb 0.14 in3.6 mm 0.20 in5.1 mm 0.52 in13.2 mm
02:00 PM 41.9°F5.5°C 40.0°F4.4°C 93% 12.8 mph W20.6 kmh W 23.6 mph38.0 kmh 29.06 in984.1 mb 0.09 in2.3 mm 0.00 in0.0 mm 0.52 in13.2 mm
02:15 PM 41.9°F5.5°C 40.0°F4.4°C 93% 14.0 mph W22.5 kmh W 33.3 mph53.6 kmh 29.09 in985.1 mb 0.09 in2.3 mm 0.00 in0.0 mm 0.52 in13.2 mm
02:30 PM 41.9°F5.5°C 40.0°F4.4°C 93% 13.2 mph W21.2 kmh W 30.1 mph48.4 kmh 29.09 in985.1 mb 0.05 in1.3 mm 0.00 in0.0 mm 0.52 in13.2 mm
02:45 PM 42.1°F5.6°C 40.2°F4.6°C 93% 13.8 mph W22.2 kmh W 28.3 mph45.5 kmh 29.12 in986.1 mb 0.00 in0.0 mm 0.00 in0.0 mm 0.52 in13.2 mm
03:00 PM 42.1°F5.6°C 40.2°F4.6°C 93% 13.4 mph WSW21.6 kmh WSW 24.3 mph39.1 kmh 29.09 in985.1 mb 0.00 in0.0 mm 0.00 in0.0 mm 0.52 in13.2 mm
03:15 PM 41.9°F5.5°C 40.0°F4.4°C 93% 15.1 mph WSW24.3 kmh WSW 34.0 mph54.7 kmh 29.06 in984.1 mb 0.00 in0.0 mm 0.00 in0.0 mm 0.52 in13.2 mm
03:30 PM 41.9°F5.5°C 40.0°F4.4°C 93% 14.9 mph W24.0 kmh W 27.9 mph44.9 kmh 29.09 in985.1 mb 0.00 in0.0 mm 0.00 in0.0 mm 0.52 in13.2 mm
03:45 PM 41.9°F5.5°C 40.0°F4.4°C 93% 14.0 mph W22.5 kmh W 28.3 mph45.5 kmh 29.12 in986.1 mb 0.00 in0.0 mm 0.00 in0.0 mm 0.52 in13.2 mm
04:00 PM 41.7°F5.4°C 39.8°F4.3°C 93% 13.3 mph W21.4 kmh W 28.3 mph45.5 kmh 29.12 in986.1 mb 0.00 in0.0 mm 0.00 in0.0 mm 0.52 in13.2 mm
04:15 PM 41.4°F5.2°C 39.2°F4.0°C 92% 10.2 mph W16.4 kmh W 26.5 mph42.6 kmh 29.12 in986.1 mb 0.05 in1.3 mm 0.20 in5.1 mm 0.56 in14.2 mm
04:30 PM 41.4°F5.2°C 39.2°F4.0°C 92% 10.4 mph W16.7 kmh W 17.5 mph28.2 kmh 29.12 in986.1 mb 0.05 in1.3 mm 0.00 in0.0 mm 0.56 in14.2 mm
04:45 PM 40.8°F4.9°C 38.7°F3.7°C 92% 13.1 mph W21.1 kmh W 22.9 mph36.9 kmh 29.12 in986.1 mb 0.05 in1.3 mm 0.00 in0.0 mm 0.56 in14.2 mm
05:00 PM 40.6°F4.8°C 38.5°F3.6°C 92% 9.1 mph W14.6 kmh W 17.2 mph27.7 kmh 29.15 in987.1 mb 0.05 in1.3 mm 0.00 in0.0 mm 0.56 in14.2 mm
05:15 PM 41.0°F5.0°C 38.9°F3.8°C 92% 10.0 mph W16.1 kmh W 20.8 mph33.5 kmh 29.15 in987.1 mb 0.00 in0.0 mm 0.00 in0.0 mm 0.56 in14.2 mm
05:30 PM 41.0°F5.0°C 38.9°F3.8°C 92% 11.6 mph W18.7 kmh W 24.3 mph39.1 kmh 29.15 in987.1 mb 0.00 in0.0 mm 0.00 in0.0 mm 0.56 in14.2 mm
05:45 PM 41.0°F5.0°C 38.9°F3.8°C 92% 12.9 mph W20.8 kmh W 25.8 mph41.5 kmh 29.15 in987.1 mb 0.00 in0.0 mm 0.00 in0.0 mm 0.56 in14.2 mm
06:00 PM 41.0°F5.0°C 38.9°F3.8°C 92% 13.3 mph W21.4 kmh W 28.3 mph45.5 kmh 29.15 in987.1 mb 0.00 in0.0 mm 0.00 in0.0 mm 0.56 in14.2 mm
06:24 PM 40.8°F4.9°C 38.4°F3.6°C 91% 11.6 mph W18.7 kmh W 14.3 mph23.0 kmh 29.15 in987.1 mb 0.00 in0.0 mm 0.00 in0.0 mm 0.56 in14.2 mm
06:30 PM 40.8°F4.9°C 38.4°F3.6°C 91% 13.9 mph W22.4 kmh W 27.2 mph43.8 kmh 29.15 in987.1 mb 0.00 in0.0 mm 0.00 in0.0 mm 0.56 in14.2 mm
06:45 PM 40.8°F4.9°C 38.4°F3.6°C 91% 13.0 mph W20.9 kmh W 25.1 mph40.4 kmh 29.18 in988.1 mb 0.00 in0.0 mm 0.00 in0.0 mm 0.56 in14.2 mm
07:00 PM 40.8°F4.9°C 38.4°F3.6°C 91% 12.4 mph W20.0 kmh W 24.7 mph39.8 kmh 29.21 in989.2 mb 0.00 in0.0 mm 0.00 in0.0 mm 0.56 in14.2 mm
07:15 PM 41.0°F5.0°C 38.6°F3.7°C 91% 13.0 mph W20.9 kmh W 31.5 mph50.7 kmh 29.21 in989.2 mb 0.00 in0.0 mm 0.00 in0.0 mm 0.56 in14.2 mm
07:30 PM 41.2°F5.1°C 38.8°F3.8°C 91% 13.4 mph WSW21.6 kmh WSW 26.1 mph42.0 kmh 29.21 in989.2 mb 0.00 in0.0 mm 0.00 in0.0 mm 0.56 in14.2 mm
07:45 PM 41.2°F5.1°C 38.8°F3.8°C 91% 11.4 mph W18.3 kmh W 21.8 mph35.1 kmh 29.21 in989.2 mb 0.00 in0.0 mm 0.00 in0.0 mm 0.56 in14.2 mm
08:00 PM 41.2°F5.1°C 38.8°F3.8°C 91% 12.8 mph W20.6 kmh W 30.4 mph48.9 kmh 29.21 in989.2 mb 0.00 in0.0 mm 0.00 in0.0 mm 0.56 in14.2 mm
08:15 PM 41.4°F5.2°C 38.9°F3.8°C 91% 11.6 mph W18.7 kmh W 21.1 mph34.0 kmh 29.21 in989.2 mb 0.00 in0.0 mm 0.00 in0.0 mm 0.56 in14.2 mm
08:30 PM 41.2°F5.1°C 38.5°F3.6°C 90% 13.4 mph W21.6 kmh W 27.9 mph44.9 kmh 29.21 in989.2 mb 0.00 in0.0 mm 0.00 in0.0 mm 0.56 in14.2 mm
08:45 PM 41.2°F5.1°C 38.5°F3.6°C 90% 15.0 mph W24.1 kmh W 31.5 mph50.7 kmh 29.21 in989.2 mb 0.00 in0.0 mm 0.00 in0.0 mm 0.56 in14.2 mm
09:00 PM 41.2°F5.1°C 38.5°F3.6°C 90% 11.4 mph W18.3 kmh W 23.6 mph38.0 kmh 29.24 in990.2 mb 0.00 in0.0 mm 0.00 in0.0 mm 0.56 in14.2 mm
09:15 PM 41.2°F5.1°C 38.5°F3.6°C 90% 11.3 mph W18.2 kmh W 20.8 mph33.5 kmh 29.24 in990.2 mb 0.00 in0.0 mm 0.00 in0.0 mm 0.56 in14.2 mm
09:30 PM 41.2°F5.1°C 38.5°F3.6°C 90% 12.7 mph WSW20.4 kmh WSW 27.2 mph43.8 kmh 29.24 in990.2 mb 0.00 in0.0 mm 0.00 in0.0 mm 0.56 in14.2 mm
09:45 PM 41.2°F5.1°C 38.5°F3.6°C 90% 12.4 mph W20.0 kmh W 24.3 mph39.1 kmh 29.24 in990.2 mb 0.00 in0.0 mm 0.00 in0.0 mm 0.56 in14.2 mm
10:00 PM 41.2°F5.1°C 38.5°F3.6°C 90% 11.7 mph W18.8 kmh W 20.0 mph32.2 kmh 29.24 in990.2 mb 0.00 in0.0 mm 0.00 in0.0 mm 0.56 in14.2 mm
10:15 PM 41.2°F5.1°C 38.5°F3.6°C 90% 11.4 mph WSW18.3 kmh WSW 20.8 mph33.5 kmh 29.24 in990.2 mb 0.00 in0.0 mm 0.00 in0.0 mm 0.56 in14.2 mm
10:30 PM 41.4°F5.2°C 38.6°F3.7°C 90% 10.9 mph W17.5 kmh W 22.9 mph36.9 kmh 29.27 in991.2 mb 0.00 in0.0 mm 0.00 in0.0 mm 0.56 in14.2 mm
10:45 PM 41.2°F5.1°C 38.5°F3.6°C 90% 10.8 mph WSW17.4 kmh WSW 20.8 mph33.5 kmh 29.27 in991.2 mb 0.00 in0.0 mm 0.00 in0.0 mm 0.56 in14.2 mm
11:00 PM 41.2°F5.1°C 38.5°F3.6°C 90% 12.3 mph W19.8 kmh W 21.1 mph34.0 kmh 29.27 in991.2 mb 0.00 in0.0 mm 0.00 in0.0 mm 0.56 in14.2 mm
11:15 PM 41.2°F5.1°C 38.5°F3.6°C 90% 12.4 mph W20.0 kmh W 24.7 mph39.8 kmh 29.27 in991.2 mb 0.00 in0.0 mm 0.00 in0.0 mm 0.56 in14.2 mm
11:30 PM 41.0°F5.0°C 38.3°F3.5°C 90% 12.8 mph W20.6 kmh W 23.6 mph38.0 kmh 29.27 in991.2 mb 0.00 in0.0 mm 0.00 in0.0 mm 0.56 in14.2 mm
11:45 PM 41.2°F5.1°C 38.5°F3.6°C 90% 11.4 mph W18.3 kmh W 26.1 mph42.0 kmh 29.30 in992.2 mb 0.00 in0.0 mm 0.00 in0.0 mm 0.56 in14.2 mm